sensor_id;sensor_type;location;lat;lon;timestamp;P1;durP1;ratioP1;P2;durP2;ratioP2
55603;SDS011;41468;48.838;9.330;2024-03-25T00:02:01;3.43;;;1.73;;
55603;SDS011;41468;48.838;9.330;2024-03-25T00:04:26;1.60;;;1.50;;
55603;SDS011;41468;48.838;9.330;2024-03-25T00:06:52;2.27;;;2.00;;
55603;SDS011;41468;48.838;9.330;2024-03-25T00:09:18;1.53;;;1.43;;
55603;SDS011;41468;48.838;9.330;2024-03-25T00:11:44;2.10;;;1.90;;
55603;SDS011;41468;48.838;9.330;2024-03-25T00:14:09;2.33;;;1.87;;
55603;SDS011;41468;48.838;9.330;2024-03-25T00:16:35;1.83;;;1.70;;
55603;SDS011;41468;48.838;9.330;2024-03-25T00:19:01;1.73;;;1.50;;
55603;SDS011;41468;48.838;9.330;2024-03-25T00:21:26;1.97;;;1.67;;
55603;SDS011;41468;48.838;9.330;2024-03-25T00:23:52;2.07;;;1.90;;
55603;SDS011;41468;48.838;9.330;2024-03-25T00:26:21;4.23;;;2.03;;
55603;SDS011;41468;48.838;9.330;2024-03-25T00:28:48;3.50;;;1.50;;
55603;SDS011;41468;48.838;9.330;2024-03-25T00:31:13;2.83;;;1.70;;
55603;SDS011;41468;48.838;9.330;2024-03-25T00:33:39;1.70;;;1.60;;
55603;SDS011;41468;48.838;9.330;2024-03-25T00:36:05;3.83;;;1.77;;
55603;SDS011;41468;48.838;9.330;2024-03-25T00:38:36;2.87;;;1.47;;
55603;SDS011;41468;48.838;9.330;2024-03-25T00:41:02;3.63;;;1.90;;
55603;SDS011;41468;48.838;9.330;2024-03-25T00:43:28;3.87;;;1.80;;
55603;SDS011;41468;48.838;9.330;2024-03-25T00:45:53;2.57;;;1.87;;
55603;SDS011;41468;48.838;9.330;2024-03-25T00:48:19;4.23;;;2.03;;
55603;SDS011;41468;48.838;9.330;2024-03-25T00:50:44;2.67;;;1.77;;
55603;SDS011;41468;48.838;9.330;2024-03-25T00:53:16;1.60;;;1.50;;
55603;SDS011;41468;48.838;9.330;2024-03-25T00:55:43;2.50;;;1.90;;
55603;SDS011;41468;48.838;9.330;2024-03-25T00:58:09;4.73;;;1.90;;
55603;SDS011;41468;48.838;9.330;2024-03-25T01:00:46;3.20;;;1.90;;
55603;SDS011;41468;48.838;9.330;2024-03-25T01:03:12;2.73;;;1.87;;
55603;SDS011;41468;48.838;9.330;2024-03-25T01:05:37;2.40;;;1.63;;
55603;SDS011;41468;48.838;9.330;2024-03-25T01:08:03;1.83;;;1.73;;
55603;SDS011;41468;48.838;9.330;2024-03-25T01:10:41;3.93;;;2.37;;
55603;SDS011;41468;48.838;9.330;2024-03-25T01:13:07;2.57;;;1.80;;
55603;SDS011;41468;48.838;9.330;2024-03-25T01:15:32;2.50;;;1.80;;
55603;SDS011;41468;48.838;9.330;2024-03-25T01:17:58;5.13;;;2.20;;
55603;SDS011;41468;48.838;9.330;2024-03-25T01:20:23;4.10;;;2.20;;
55603;SDS011;41468;48.838;9.330;2024-03-25T01:23:02;2.80;;;1.83;;
55603;SDS011;41468;48.838;9.330;2024-03-25T01:25:33;2.13;;;1.90;;
55603;SDS011;41468;48.838;9.330;2024-03-25T01:27:58;3.00;;;2.00;;
55603;SDS011;41468;48.838;9.330;2024-03-25T01:30:24;2.70;;;1.73;;
55603;SDS011;41468;48.838;9.330;2024-03-25T01:32:50;2.50;;;1.83;;
55603;SDS011;41468;48.838;9.330;2024-03-25T01:35:15;2.80;;;1.80;;
55603;SDS011;41468;48.838;9.330;2024-03-25T01:37:41;2.07;;;1.80;;
55603;SDS011;41468;48.838;9.330;2024-03-25T01:40:07;3.67;;;2.20;;
55603;SDS011;41468;48.838;9.330;2024-03-25T01:42:35;2.53;;;1.90;;
55603;SDS011;41468;48.838;9.330;2024-03-25T01:45:07;2.63;;;2.00;;
55603;SDS011;41468;48.838;9.330;2024-03-25T01:47:35;2.20;;;2.00;;
55603;SDS011;41468;48.838;9.330;2024-03-25T01:50:02;3.00;;;1.97;;
55603;SDS011;41468;48.838;9.330;2024-03-25T01:52:29;3.57;;;2.00;;
55603;SDS011;41468;48.838;9.330;2024-03-25T01:54:55;4.77;;;2.03;;
55603;SDS011;41468;48.838;9.330;2024-03-25T01:57:27;7.13;;;2.10;;
55603;SDS011;41468;48.838;9.330;2024-03-25T01:59:52;4.90;;;2.10;;
55603;SDS011;41468;48.838;9.330;2024-03-25T02:02:19;2.20;;;1.80;;
55603;SDS011;41468;48.838;9.330;2024-03-25T02:04:44;3.03;;;2.10;;
55603;SDS011;41468;48.838;9.330;2024-03-25T02:07:10;3.37;;;1.80;;
55603;SDS011;41468;48.838;9.330;2024-03-25T02:09:37;3.67;;;2.27;;
55603;SDS011;41468;48.838;9.330;2024-03-25T02:12:04;6.30;;;2.17;;
55603;SDS011;41468;48.838;9.330;2024-03-25T02:14:30;2.63;;;2.03;;
55603;SDS011;41468;48.838;9.330;2024-03-25T02:16:55;4.37;;;2.37;;
55603;SDS011;41468;48.838;9.330;2024-03-25T02:19:21;2.63;;;2.13;;
55603;SDS011;41468;48.838;9.330;2024-03-25T02:21:49;5.83;;;2.40;;
55603;SDS011;41468;48.838;9.330;2024-03-25T02:24:15;3.07;;;2.10;;
55603;SDS011;41468;48.838;9.330;2024-03-25T02:26:41;3.90;;;2.23;;
55603;SDS011;41468;48.838;9.330;2024-03-25T02:29:09;2.33;;;2.10;;
55603;SDS011;41468;48.838;9.330;2024-03-25T02:31:34;3.03;;;2.20;;
55603;SDS011;41468;48.838;9.330;2024-03-25T02:34:00;2.70;;;2.20;;
55603;SDS011;41468;48.838;9.330;2024-03-25T02:36:25;5.20;;;2.40;;
55603;SDS011;41468;48.838;9.330;2024-03-25T02:38:58;5.93;;;1.93;;
55603;SDS011;41468;48.838;9.330;2024-03-25T02:41:24;4.17;;;2.63;;
55603;SDS011;41468;48.838;9.330;2024-03-25T02:43:50;2.57;;;2.23;;
55603;SDS011;41468;48.838;9.330;2024-03-25T02:46:16;3.03;;;1.87;;
55603;SDS011;41468;48.838;9.330;2024-03-25T02:48:41;9.67;;;2.00;;
55603;SDS011;41468;48.838;9.330;2024-03-25T02:51:07;2.77;;;2.53;;
55603;SDS011;41468;48.838;9.330;2024-03-25T02:53:32;2.10;;;1.90;;
55603;SDS011;41468;48.838;9.330;2024-03-25T02:55:58;3.27;;;2.30;;
55603;SDS011;41468;48.838;9.330;2024-03-25T02:58:23;2.27;;;2.07;;
55603;SDS011;41468;48.838;9.330;2024-03-25T03:00:49;3.07;;;1.80;;
55603;SDS011;41468;48.838;9.330;2024-03-25T03:03:22;4.17;;;2.20;;
55603;SDS011;41468;48.838;9.330;2024-03-25T03:05:47;3.53;;;1.97;;
55603;SDS011;41468;48.838;9.330;2024-03-25T03:08:13;2.27;;;2.07;;
55603;SDS011;41468;48.838;9.330;2024-03-25T03:10:38;4.67;;;2.07;;
55603;SDS011;41468;48.838;9.330;2024-03-25T03:13:04;3.40;;;2.00;;
55603;SDS011;41468;48.838;9.330;2024-03-25T03:15:29;2.00;;;1.87;;
55603;SDS011;41468;48.838;9.330;2024-03-25T03:17:55;2.73;;;1.73;;
55603;SDS011;41468;48.838;9.330;2024-03-25T03:20:26;1.80;;;1.70;;
55603;SDS011;41468;48.838;9.330;2024-03-25T03:22:52;2.77;;;2.10;;
55603;SDS011;41468;48.838;9.330;2024-03-25T03:25:17;5.53;;;2.10;;
55603;SDS011;41468;48.838;9.330;2024-03-25T03:27:43;6.03;;;2.60;;
55603;SDS011;41468;48.838;9.330;2024-03-25T03:30:08;2.73;;;2.20;;
55603;SDS011;41468;48.838;9.330;2024-03-25T03:32:34;3.37;;;2.07;;
55603;SDS011;41468;48.838;9.330;2024-03-25T03:35:00;2.20;;;1.97;;
55603;SDS011;41468;48.838;9.330;2024-03-25T03:37:25;5.37;;;2.03;;
55603;SDS011;41468;48.838;9.330;2024-03-25T03:39:51;4.87;;;2.50;;
55603;SDS011;41468;48.838;9.330;2024-03-25T03:42:16;1.97;;;1.67;;
55603;SDS011;41468;48.838;9.330;2024-03-25T03:44:42;3.37;;;2.30;;
55603;SDS011;41468;48.838;9.330;2024-03-25T03:47:13;2.37;;;1.97;;
55603;SDS011;41468;48.838;9.330;2024-03-25T03:49:38;3.73;;;2.43;;
55603;SDS011;41468;48.838;9.330;2024-03-25T03:52:04;3.47;;;2.37;;
55603;SDS011;41468;48.838;9.330;2024-03-25T03:54:30;3.07;;;2.40;;
55603;SDS011;41468;48.838;9.330;2024-03-25T03:56:55;2.63;;;2.10;;
55603;SDS011;41468;48.838;9.330;2024-03-25T03:59:21;6.40;;;2.40;;
55603;SDS011;41468;48.838;9.330;2024-03-25T04:01:46;2.87;;;2.60;;
55603;SDS011;41468;48.838;9.330;2024-03-25T04:04:12;5.07;;;2.67;;
55603;SDS011;41468;48.838;9.330;2024-03-25T04:06:49;2.73;;;2.43;;
55603;SDS011;41468;48.838;9.330;2024-03-25T04:09:15;4.90;;;2.30;;
55603;SDS011;41468;48.838;9.330;2024-03-25T04:11:40;3.10;;;2.80;;
55603;SDS011;41468;48.838;9.330;2024-03-25T04:14:06;10.33;;;3.03;;
55603;SDS011;41468;48.838;9.330;2024-03-25T04:16:31;2.97;;;2.20;;
55603;SDS011;41468;48.838;9.330;2024-03-25T04:18:57;6.23;;;2.30;;
55603;SDS011;41468;48.838;9.330;2024-03-25T04:21:23;5.80;;;2.70;;
55603;SDS011;41468;48.838;9.330;2024-03-25T04:23:49;3.73;;;2.57;;
55603;SDS011;41468;48.838;9.330;2024-03-25T04:26:15;9.20;;;6.00;;
55603;SDS011;41468;48.838;9.330;2024-03-25T04:28:40;3.27;;;2.97;;
55603;SDS011;41468;48.838;9.330;2024-03-25T04:31:07;3.90;;;3.10;;
55603;SDS011;41468;48.838;9.330;2024-03-25T04:33:33;2.80;;;2.60;;
55603;SDS011;41468;48.838;9.330;2024-03-25T04:35:59;8.60;;;2.80;;
55603;SDS011;41468;48.838;9.330;2024-03-25T04:38:24;4.30;;;2.63;;
55603;SDS011;41468;48.838;9.330;2024-03-25T04:40:50;6.33;;;2.80;;
55603;SDS011;41468;48.838;9.330;2024-03-25T04:43:16;3.37;;;2.17;;
55603;SDS011;41468;48.838;9.330;2024-03-25T04:45:42;6.80;;;2.60;;
55603;SDS011;41468;48.838;9.330;2024-03-25T04:48:19;5.17;;;2.47;;
55603;SDS011;41468;48.838;9.330;2024-03-25T04:50:45;4.73;;;2.50;;
55603;SDS011;41468;48.838;9.330;2024-03-25T04:53:10;8.63;;;2.73;;
55603;SDS011;41468;48.838;9.330;2024-03-25T04:55:42;2.70;;;2.40;;
55603;SDS011;41468;48.838;9.330;2024-03-25T04:58:07;5.40;;;2.87;;
55603;SDS011;41468;48.838;9.330;2024-03-25T05:00:33;3.07;;;2.23;;
55603;SDS011;41468;48.838;9.330;2024-03-25T05:02:58;3.17;;;2.50;;
55603;SDS011;41468;48.838;9.330;2024-03-25T05:05:24;3.50;;;2.30;;
55603;SDS011;41468;48.838;9.330;2024-03-25T05:07:49;5.20;;;2.37;;
55603;SDS011;41468;48.838;9.330;2024-03-25T05:10:15;3.53;;;2.53;;
55603;SDS011;41468;48.838;9.330;2024-03-25T05:12:40;4.80;;;2.30;;
55603;SDS011;41468;48.838;9.330;2024-03-25T05:15:06;4.03;;;2.50;;
55603;SDS011;41468;48.838;9.330;2024-03-25T05:17:32;4.50;;;2.20;;
55603;SDS011;41468;48.838;9.330;2024-03-25T05:19:57;2.90;;;2.40;;
55603;SDS011;41468;48.838;9.330;2024-03-25T05:22:23;3.00;;;2.70;;
55603;SDS011;41468;48.838;9.330;2024-03-25T05:24:48;3.40;;;2.40;;
55603;SDS011;41468;48.838;9.330;2024-03-25T05:27:22;3.27;;;2.50;;
55603;SDS011;41468;48.838;9.330;2024-03-25T05:29:49;5.57;;;2.83;;
55603;SDS011;41468;48.838;9.330;2024-03-25T05:32:15;5.70;;;2.80;;
55603;SDS011;41468;48.838;9.330;2024-03-25T05:34:54;3.70;;;2.37;;
55603;SDS011;41468;48.838;9.330;2024-03-25T05:37:31;5.40;;;2.70;;
55603;SDS011;41468;48.838;9.330;2024-03-25T05:40:10;6.07;;;2.67;;
55603;SDS011;41468;48.838;9.330;2024-03-25T05:42:37;4.10;;;2.70;;
55603;SDS011;41468;48.838;9.330;2024-03-25T05:45:03;3.37;;;2.40;;
55603;SDS011;41468;48.838;9.330;2024-03-25T05:47:29;5.13;;;2.33;;
55603;SDS011;41468;48.838;9.330;2024-03-25T05:49:54;4.57;;;2.53;;
55603;SDS011;41468;48.838;9.330;2024-03-25T05:52:20;4.03;;;2.77;;
55603;SDS011;41468;48.838;9.330;2024-03-25T05:54:46;5.40;;;2.60;;
55603;SDS011;41468;48.838;9.330;2024-03-25T05:57:11;4.53;;;2.53;;
55603;SDS011;41468;48.838;9.330;2024-03-25T05:59:37;2.50;;;2.27;;
55603;SDS011;41468;48.838;9.330;2024-03-25T06:02:02;5.27;;;2.63;;
55603;SDS011;41468;48.838;9.330;2024-03-25T06:04:28;6.93;;;2.87;;
55603;SDS011;41468;48.838;9.330;2024-03-25T06:06:53;3.30;;;2.40;;
55603;SDS011;41468;48.838;9.330;2024-03-25T06:09:19;3.63;;;2.40;;
55603;SDS011;41468;48.838;9.330;2024-03-25T06:11:44;5.40;;;2.50;;
55603;SDS011;41468;48.838;9.330;2024-03-25T06:14:10;3.00;;;2.33;;
55603;SDS011;41468;48.838;9.330;2024-03-25T06:16:35;2.70;;;2.50;;
55603;SDS011;41468;48.838;9.330;2024-03-25T06:19:14;3.60;;;2.40;;
55603;SDS011;41468;48.838;9.330;2024-03-25T06:21:39;5.03;;;3.67;;
55603;SDS011;41468;48.838;9.330;2024-03-25T06:24:10;6.43;;;3.50;;
55603;SDS011;41468;48.838;9.330;2024-03-25T06:26:36;8.70;;;5.97;;
55603;SDS011;41468;48.838;9.330;2024-03-25T06:29:02;5.00;;;3.67;;
55603;SDS011;41468;48.838;9.330;2024-03-25T06:31:28;3.43;;;2.80;;
55603;SDS011;41468;48.838;9.330;2024-03-25T06:34:12;6.30;;;2.70;;
55603;SDS011;41468;48.838;9.330;2024-03-25T06:36:43;5.87;;;3.53;;
55603;SDS011;41468;48.838;9.330;2024-03-25T06:39:10;4.63;;;4.23;;
55603;SDS011;41468;48.838;9.330;2024-03-25T06:41:36;5.40;;;2.87;;
55603;SDS011;41468;48.838;9.330;2024-03-25T06:44:02;3.97;;;2.63;;
55603;SDS011;41468;48.838;9.330;2024-03-25T06:46:27;2.70;;;2.50;;
55603;SDS011;41468;48.838;9.330;2024-03-25T06:48:53;5.10;;;2.60;;
55603;SDS011;41468;48.838;9.330;2024-03-25T06:51:18;2.73;;;2.50;;
55603;SDS011;41468;48.838;9.330;2024-03-25T06:53:44;4.60;;;2.20;;
55603;SDS011;41468;48.838;9.330;2024-03-25T06:56:10;6.47;;;3.23;;
55603;SDS011;41468;48.838;9.330;2024-03-25T06:58:35;5.77;;;3.47;;
55603;SDS011;41468;48.838;9.330;2024-03-25T07:01:04;3.83;;;2.63;;
55603;SDS011;41468;48.838;9.330;2024-03-25T07:03:32;2.47;;;2.30;;
55603;SDS011;41468;48.838;9.330;2024-03-25T07:05:59;4.10;;;2.60;;
55603;SDS011;41468;48.838;9.330;2024-03-25T07:08:31;4.20;;;2.67;;
55603;SDS011;41468;48.838;9.330;2024-03-25T07:10:57;3.57;;;2.70;;
55603;SDS011;41468;48.838;9.330;2024-03-25T07:13:23;5.53;;;3.70;;
55603;SDS011;41468;48.838;9.330;2024-03-25T07:15:48;2.63;;;2.43;;
55603;SDS011;41468;48.838;9.330;2024-03-25T07:18:14;4.13;;;2.90;;
55603;SDS011;41468;48.838;9.330;2024-03-25T07:20:40;3.03;;;2.57;;
55603;SDS011;41468;48.838;9.330;2024-03-25T07:23:06;4.43;;;2.40;;
55603;SDS011;41468;48.838;9.330;2024-03-25T07:25:32;3.90;;;2.67;;
55603;SDS011;41468;48.838;9.330;2024-03-25T07:27:58;7.20;;;3.00;;
55603;SDS011;41468;48.838;9.330;2024-03-25T07:30:24;4.67;;;2.67;;
55603;SDS011;41468;48.838;9.330;2024-03-25T07:32:56;4.30;;;2.60;;
55603;SDS011;41468;48.838;9.330;2024-03-25T07:35:22;4.83;;;2.63;;
55603;SDS011;41468;48.838;9.330;2024-03-25T07:37:48;6.60;;;2.67;;
55603;SDS011;41468;48.838;9.330;2024-03-25T07:40:22;7.53;;;3.10;;
55603;SDS011;41468;48.838;9.330;2024-03-25T07:42:48;4.93;;;2.80;;
55603;SDS011;41468;48.838;9.330;2024-03-25T07:45:14;3.57;;;3.00;;
55603;SDS011;41468;48.838;9.330;2024-03-25T07:47:40;4.37;;;2.30;;
55603;SDS011;41468;48.838;9.330;2024-03-25T07:50:06;8.00;;;3.20;;
55603;SDS011;41468;48.838;9.330;2024-03-25T07:52:32;3.47;;;2.80;;
55603;SDS011;41468;48.838;9.330;2024-03-25T07:54:58;10.03;;;2.60;;
55603;SDS011;41468;48.838;9.330;2024-03-25T07:57:23;4.47;;;2.90;;
55603;SDS011;41468;48.838;9.330;2024-03-25T07:59:49;3.90;;;2.63;;
55603;SDS011;41468;48.838;9.330;2024-03-25T08:02:20;7.33;;;2.47;;
55603;SDS011;41468;48.838;9.330;2024-03-25T08:04:46;4.17;;;2.57;;
55603;SDS011;41468;48.838;9.330;2024-03-25T08:07:12;4.33;;;2.47;;
55603;SDS011;41468;48.838;9.330;2024-03-25T08:09:38;4.83;;;2.70;;
55603;SDS011;41468;48.838;9.330;2024-03-25T08:12:03;2.50;;;2.30;;
55603;SDS011;41468;48.838;9.330;2024-03-25T08:14:29;8.60;;;2.20;;
55603;SDS011;41468;48.838;9.330;2024-03-25T08:16:55;2.77;;;2.10;;
55603;SDS011;41468;48.838;9.330;2024-03-25T08:19:20;6.50;;;2.17;;
55603;SDS011;41468;48.838;9.330;2024-03-25T08:21:46;3.43;;;2.23;;
55603;SDS011;41468;48.838;9.330;2024-03-25T08:24:13;3.53;;;2.20;;
55603;SDS011;41468;48.838;9.330;2024-03-25T08:26:39;5.07;;;2.10;;
55603;SDS011;41468;48.838;9.330;2024-03-25T08:29:05;3.53;;;2.20;;
55603;SDS011;41468;48.838;9.330;2024-03-25T08:31:31;3.13;;;1.77;;
55603;SDS011;41468;48.838;9.330;2024-03-25T08:34:08;3.03;;;2.20;;
55603;SDS011;41468;48.838;9.330;2024-03-25T08:36:34;5.13;;;2.00;;
55603;SDS011;41468;48.838;9.330;2024-03-25T08:38:59;4.00;;;2.20;;
55603;SDS011;41468;48.838;9.330;2024-03-25T08:41:25;3.37;;;1.93;;
55603;SDS011;41468;48.838;9.330;2024-03-25T08:43:50;2.40;;;1.80;;
55603;SDS011;41468;48.838;9.330;2024-03-25T08:46:16;4.30;;;1.83;;
55603;SDS011;41468;48.838;9.330;2024-03-25T08:48:41;4.70;;;2.30;;
55603;SDS011;41468;48.838;9.330;2024-03-25T08:51:07;2.37;;;1.90;;
55603;SDS011;41468;48.838;9.330;2024-03-25T08:53:33;4.17;;;1.90;;
55603;SDS011;41468;48.838;9.330;2024-03-25T08:55:59;2.77;;;1.83;;
55603;SDS011;41468;48.838;9.330;2024-03-25T08:58:24;1.63;;;1.53;;
55603;SDS011;41468;48.838;9.330;2024-03-25T09:00:50;3.03;;;1.80;;
55603;SDS011;41468;48.838;9.330;2024-03-25T09:03:16;5.60;;;2.37;;
55603;SDS011;41468;48.838;9.330;2024-03-25T09:05:42;4.07;;;1.87;;
55603;SDS011;41468;48.838;9.330;2024-03-25T09:08:07;3.63;;;2.00;;
55603;SDS011;41468;48.838;9.330;2024-03-25T09:10:36;3.70;;;1.90;;
55603;SDS011;41468;48.838;9.330;2024-03-25T09:13:21;3.33;;;1.90;;
55603;SDS011;41468;48.838;9.330;2024-03-25T09:15:48;3.47;;;1.87;;
55603;SDS011;41468;48.838;9.330;2024-03-25T09:18:14;4.53;;;2.00;;
55603;SDS011;41468;48.838;9.330;2024-03-25T09:20:40;2.40;;;2.00;;
55603;SDS011;41468;48.838;9.330;2024-03-25T09:23:05;3.00;;;2.00;;
55603;SDS011;41468;48.838;9.330;2024-03-25T09:25:31;3.37;;;2.00;;
55603;SDS011;41468;48.838;9.330;2024-03-25T09:27:56;4.80;;;2.00;;
55603;SDS011;41468;48.838;9.330;2024-03-25T09:30:22;3.37;;;1.83;;
55603;SDS011;41468;48.838;9.330;2024-03-25T09:32:47;2.10;;;1.90;;
55603;SDS011;41468;48.838;9.330;2024-03-25T09:35:21;3.47;;;1.70;;
55603;SDS011;41468;48.838;9.330;2024-03-25T09:37:47;3.70;;;2.00;;
55603;SDS011;41468;48.838;9.330;2024-03-25T09:40:18;4.30;;;1.60;;
55603;SDS011;41468;48.838;9.330;2024-03-25T09:42:48;8.80;;;2.00;;
55603;SDS011;41468;48.838;9.330;2024-03-25T09:45:17;1.80;;;1.30;;
55603;SDS011;41468;48.838;9.330;2024-03-25T09:47:46;3.90;;;1.60;;
55603;SDS011;41468;48.838;9.330;2024-03-25T09:50:13;3.30;;;1.57;;
55603;SDS011;41468;48.838;9.330;2024-03-25T09:52:45;2.03;;;1.70;;
55603;SDS011;41468;48.838;9.330;2024-03-25T09:55:17;2.27;;;1.80;;
55603;SDS011;41468;48.838;9.330;2024-03-25T09:57:43;3.57;;;1.57;;
55603;SDS011;41468;48.838;9.330;2024-03-25T10:00:09;2.17;;;1.60;;
55603;SDS011;41468;48.838;9.330;2024-03-25T10:02:44;3.33;;;1.70;;
55603;SDS011;41468;48.838;9.330;2024-03-25T10:05:10;1.70;;;1.40;;
55603;SDS011;41468;48.838;9.330;2024-03-25T10:07:44;2.73;;;1.63;;
55603;SDS011;41468;48.838;9.330;2024-03-25T10:10:09;7.93;;;2.33;;
55603;SDS011;41468;48.838;9.330;2024-03-25T10:12:38;2.40;;;1.50;;
55603;SDS011;41468;48.838;9.330;2024-03-25T10:15:03;2.93;;;1.87;;
55603;SDS011;41468;48.838;9.330;2024-03-25T10:17:41;2.33;;;1.50;;
55603;SDS011;41468;48.838;9.330;2024-03-25T10:20:07;4.70;;;1.67;;
55603;SDS011;41468;48.838;9.330;2024-03-25T10:22:41;3.07;;;1.80;;
55603;SDS011;41468;48.838;9.330;2024-03-25T10:25:18;2.03;;;1.50;;
55603;SDS011;41468;48.838;9.330;2024-03-25T10:27:52;3.30;;;1.80;;
55603;SDS011;41468;48.838;9.330;2024-03-25T10:30:24;2.00;;;1.50;;
55603;SDS011;41468;48.838;9.330;2024-03-25T10:33:24;4.07;;;1.93;;
55603;SDS011;41468;48.838;9.330;2024-03-25T10:35:42;3.17;;;1.90;;
55603;SDS011;41468;48.838;9.330;2024-03-25T10:38:10;2.67;;;1.53;;
55603;SDS011;41468;48.838;9.330;2024-03-25T10:40:39;1.83;;;1.60;;
55603;SDS011;41468;48.838;9.330;2024-03-25T10:43:11;3.53;;;1.83;;
55603;SDS011;41468;48.838;9.330;2024-03-25T10:45:42;3.50;;;1.87;;
55603;SDS011;41468;48.838;9.330;2024-03-25T10:48:20;5.33;;;1.70;;
55603;SDS011;41468;48.838;9.330;2024-03-25T10:50:51;2.23;;;1.53;;
55603;SDS011;41468;48.838;9.330;2024-03-25T10:53:20;3.70;;;1.90;;
55603;SDS011;41468;48.838;9.330;2024-03-25T10:55:49;5.70;;;2.33;;
55603;SDS011;41468;48.838;9.330;2024-03-25T10:58:16;2.53;;;1.80;;
55603;SDS011;41468;48.838;9.330;2024-03-25T11:00:43;3.40;;;1.90;;
55603;SDS011;41468;48.838;9.330;2024-03-25T11:03:09;3.17;;;1.52;;
55603;SDS011;41468;48.838;9.330;2024-03-25T11:05:36;2.00;;;1.75;;
55603;SDS011;41468;48.838;9.330;2024-03-25T11:08:10;1.90;;;1.73;;
55603;SDS011;41468;48.838;9.330;2024-03-25T11:10:39;2.00;;;1.80;;
55603;SDS011;41468;48.838;9.330;2024-03-25T11:13:09;3.00;;;1.70;;
55603;SDS011;41468;48.838;9.330;2024-03-25T11:15:42;2.13;;;1.90;;
55603;SDS011;41468;48.838;9.330;2024-03-25T11:18:15;3.80;;;1.87;;
55603;SDS011;41468;48.838;9.330;2024-03-25T11:20:42;3.33;;;2.00;;
55603;SDS011;41468;48.838;9.330;2024-03-25T11:23:11;2.85;;;2.10;;
55603;SDS011;41468;48.838;9.330;2024-03-25T11:25:38;3.25;;;2.00;;
55603;SDS011;41468;48.838;9.330;2024-03-25T11:28:05;2.33;;;1.80;;
55603;SDS011;41468;48.838;9.330;2024-03-25T11:30:31;2.90;;;1.77;;
55603;SDS011;41468;48.838;9.330;2024-03-25T11:32:57;3.05;;;1.80;;
55603;SDS011;41468;48.838;9.330;2024-03-25T11:35:37;2.50;;;1.90;;
55603;SDS011;41468;48.838;9.330;2024-03-25T11:38:02;2.13;;;1.65;;
55603;SDS011;41468;48.838;9.330;2024-03-25T11:40:28;2.47;;;1.58;;
55603;SDS011;41468;48.838;9.330;2024-03-25T11:42:54;2.10;;;1.77;;
55603;SDS011;41468;48.838;9.330;2024-03-25T11:45:20;3.67;;;1.90;;
55603;SDS011;41468;48.838;9.330;2024-03-25T11:47:47;3.25;;;2.00;;
55603;SDS011;41468;48.838;9.330;2024-03-25T11:50:14;2.13;;;1.80;;
55603;SDS011;41468;48.838;9.330;2024-03-25T11:52:41;4.43;;;1.60;;
55603;SDS011;41468;48.838;9.330;2024-03-25T11:55:07;2.45;;;1.65;;
55603;SDS011;41468;48.838;9.330;2024-03-25T11:57:35;2.10;;;1.67;;
55603;SDS011;41468;48.838;9.330;2024-03-25T12:00:02;3.33;;;1.65;;
55603;SDS011;41468;48.838;9.330;2024-03-25T12:02:30;3.05;;;1.77;;
55603;SDS011;41468;48.838;9.330;2024-03-25T12:04:56;2.78;;;2.00;;
55603;SDS011;41468;48.838;9.330;2024-03-25T12:07:22;4.57;;;1.90;;
55603;SDS011;41468;48.838;9.330;2024-03-25T12:09:47;1.98;;;1.77;;
55603;SDS011;41468;48.838;9.330;2024-03-25T12:12:32;2.38;;;1.70;;
55603;SDS011;41468;48.838;9.330;2024-03-25T12:14:58;2.22;;;1.67;;
55603;SDS011;41468;48.838;9.330;2024-03-25T12:17:24;2.38;;;2.17;;
55603;SDS011;41468;48.838;9.330;2024-03-25T12:19:59;2.13;;;1.60;;
55603;SDS011;41468;48.838;9.330;2024-03-25T12:22:29;4.32;;;2.17;;
55603;SDS011;41468;48.838;9.330;2024-03-25T12:25:05;4.73;;;1.80;;
55603;SDS011;41468;48.838;9.330;2024-03-25T12:27:32;2.72;;;1.92;;
55603;SDS011;41468;48.838;9.330;2024-03-25T12:30:08;1.90;;;1.75;;
55603;SDS011;41468;48.838;9.330;2024-03-25T12:35:07;1.80;;;1.70;;
55603;SDS011;41468;48.838;9.330;2024-03-25T12:37:37;2.60;;;1.80;;
55603;SDS011;41468;48.838;9.330;2024-03-25T12:40:04;2.47;;;1.85;;
55603;SDS011;41468;48.838;9.330;2024-03-25T12:42:33;4.40;;;1.85;;
55603;SDS011;41468;48.838;9.330;2024-03-25T12:44:59;2.63;;;1.60;;
55603;SDS011;41468;48.838;9.330;2024-03-25T12:47:25;1.73;;;1.55;;
55603;SDS011;41468;48.838;9.330;2024-03-25T12:49:50;2.40;;;1.40;;
55603;SDS011;41468;48.838;9.330;2024-03-25T12:52:16;2.80;;;1.80;;
55603;SDS011;41468;48.838;9.330;2024-03-25T12:54:42;2.20;;;2.00;;
55603;SDS011;41468;48.838;9.330;2024-03-25T12:57:08;1.90;;;1.67;;
55603;SDS011;41468;48.838;9.330;2024-03-25T12:59:33;3.25;;;1.60;;
55603;SDS011;41468;48.838;9.330;2024-03-25T13:01:59;4.22;;;1.83;;
55603;SDS011;41468;48.838;9.330;2024-03-25T13:04:25;2.00;;;1.70;;
55603;SDS011;41468;48.838;9.330;2024-03-25T13:06:51;2.92;;;1.83;;
55603;SDS011;41468;48.838;9.330;2024-03-25T13:09:17;2.25;;;1.92;;
55603;SDS011;41468;48.838;9.330;2024-03-25T13:11:42;3.45;;;1.55;;
55603;SDS011;41468;48.838;9.330;2024-03-25T13:14:11;2.15;;;1.58;;
55603;SDS011;41468;48.838;9.330;2024-03-25T13:16:37;2.13;;;1.53;;
55603;SDS011;41468;48.838;9.330;2024-03-25T13:19:06;2.97;;;1.80;;
55603;SDS011;41468;48.838;9.330;2024-03-25T13:21:32;1.90;;;1.80;;
55603;SDS011;41468;48.838;9.330;2024-03-25T13:23:58;3.87;;;1.70;;
55603;SDS011;41468;48.838;9.330;2024-03-25T13:26:23;3.03;;;1.50;;
55603;SDS011;41468;48.838;9.330;2024-03-25T13:28:49;2.37;;;1.57;;
55603;SDS011;41468;48.838;9.330;2024-03-25T13:31:14;2.43;;;1.60;;
55603;SDS011;41468;48.838;9.330;2024-03-25T13:33:41;3.77;;;2.17;;
55603;SDS011;41468;48.838;9.330;2024-03-25T13:36:15;2.27;;;1.80;;
55603;SDS011;41468;48.838;9.330;2024-03-25T13:38:40;2.30;;;1.83;;
55603;SDS011;41468;48.838;9.330;2024-03-25T13:41:06;1.63;;;1.50;;
55603;SDS011;41468;48.838;9.330;2024-03-25T13:43:32;3.33;;;2.07;;
55603;SDS011;41468;48.838;9.330;2024-03-25T13:45:57;2.67;;;1.80;;
55603;SDS011;41468;48.838;9.330;2024-03-25T13:48:23;2.30;;;1.75;;
55603;SDS011;41468;48.838;9.330;2024-03-25T13:50:55;3.23;;;1.77;;
55603;SDS011;41468;48.838;9.330;2024-03-25T13:53:21;1.97;;;1.80;;
55603;SDS011;41468;48.838;9.330;2024-03-25T13:55:46;2.20;;;1.70;;
55603;SDS011;41468;48.838;9.330;2024-03-25T13:58:12;1.97;;;1.73;;
55603;SDS011;41468;48.838;9.330;2024-03-25T14:00:38;4.00;;;1.67;;
55603;SDS011;41468;48.838;9.330;2024-03-25T14:03:04;1.50;;;1.37;;
55603;SDS011;41468;48.838;9.330;2024-03-25T14:05:30;2.47;;;1.70;;
55603;SDS011;41468;48.838;9.330;2024-03-25T14:07:55;1.67;;;1.53;;
55603;SDS011;41468;48.838;9.330;2024-03-25T14:10:23;2.70;;;1.80;;
55603;SDS011;41468;48.838;9.330;2024-03-25T14:12:49;3.57;;;1.70;;
55603;SDS011;41468;48.838;9.330;2024-03-25T14:15:15;1.60;;;1.50;;
55603;SDS011;41468;48.838;9.330;2024-03-25T14:17:40;1.73;;;1.50;;
55603;SDS011;41468;48.838;9.330;2024-03-25T14:20:06;3.53;;;1.47;;
55603;SDS011;41468;48.838;9.330;2024-03-25T14:22:34;1.97;;;1.40;;
55603;SDS011;41468;48.838;9.330;2024-03-25T14:25:00;1.50;;;1.40;;
55603;SDS011;41468;48.838;9.330;2024-03-25T14:27:25;3.13;;;1.60;;
55603;SDS011;41468;48.838;9.330;2024-03-25T14:29:51;2.40;;;1.87;;
55603;SDS011;41468;48.838;9.330;2024-03-25T14:32:20;3.10;;;1.80;;
55603;SDS011;41468;48.838;9.330;2024-03-25T14:34:47;2.17;;;1.53;;
55603;SDS011;41468;48.838;9.330;2024-03-25T14:37:13;1.63;;;1.53;;
55603;SDS011;41468;48.838;9.330;2024-03-25T14:39:39;4.47;;;1.73;;
55603;SDS011;41468;48.838;9.330;2024-03-25T14:42:05;6.50;;;1.60;;
55603;SDS011;41468;48.838;9.330;2024-03-25T14:44:40;1.57;;;1.30;;
55603;SDS011;41468;48.838;9.330;2024-03-25T14:47:05;2.53;;;1.90;;
55603;SDS011;41468;48.838;9.330;2024-03-25T14:49:31;1.57;;;1.47;;
55603;SDS011;41468;48.838;9.330;2024-03-25T14:51:56;3.80;;;1.40;;